Time;durP1;ratioP1;P1;durP2;ratioP2;P2;SDS_P1;SDS_P2;PMS_P1;PMS_P2;Temp;Humidity;BMP_temperature;BMP_pressure;BME280_temperature;BME280_humidity;BME280_pressure;Samples;Min_cycle;Max_cycle;Signal;HPM_P1;HPM_P2
2023/01/08 00:01:38;;;;;;;44.60;24.63;;;5.20;99.90;;;4.96;84.85;100470.81;5084572;28;20271;-70
2023/01/08 00:04:06;;;;;;;44.57;24.50;;;5.20;99.90;;;4.92;84.55;100459.69;5090097;28;20212;-72
2023/01/08 00:06:37;;;;;;;39.10;23.13;;;5.20;99.90;;;4.88;84.35;100457.91;5090260;28;20744;-72
2023/01/08 00:09:06;;;;;;;38.87;22.50;;;5.10;99.90;;;4.89;84.62;100456.22;5091347;28;20209;-69
2023/01/08 00:11:34;;;;;;;41.70;23.37;;;5.10;99.90;;;4.83;84.76;100460.41;5083583;28;20262;-70
2023/01/08 00:14:03;;;;;;;47.07;23.80;;;5.10;99.90;;;4.78;84.70;100456.88;5085936;28;20266;-70
2023/01/08 00:16:31;;;;;;;41.53;22.80;;;5.00;99.90;;;4.77;85.02;100460.28;5081049;28;20205;-73
2023/01/08 00:19:01;;;;;;;39.47;22.80;;;5.00;99.90;;;4.76;84.98;100463.66;5087167;28;20257;-69
2023/01/08 00:21:29;;;;;;;37.43;21.43;;;5.00;99.90;;;4.73;85.20;100463.59;5101897;28;20257;-69
2023/01/08 00:23:59;;;;;;;38.10;21.97;;;5.00;99.90;;;4.73;85.63;100462.75;5111642;28;20212;-70
2023/01/08 00:26:28;;;;;;;40.37;22.87;;;5.00;99.90;;;4.72;85.11;100464.44;5110318;28;20616;-72
2023/01/08 00:28:57;;;;;;;37.67;21.77;;;5.00;99.90;;;4.72;85.21;100464.44;5095951;28;20645;-70
2023/01/08 00:31:26;;;;;;;39.43;22.97;;;4.90;99.90;;;4.70;85.21;100453.34;5107896;28;20212;-70
2023/01/08 00:33:54;;;;;;;35.83;22.67;;;4.90;99.90;;;4.71;84.74;100454.19;5110914;28;20208;-69
2023/01/08 00:36:23;;;;;;;37.87;22.17;;;4.90;99.90;;;4.70;85.04;100455.88;5108043;28;20299;-70
2023/01/08 00:38:51;;;;;;;36.83;21.27;;;4.90;99.90;;;4.68;84.26;100449.91;5111336;28;20562;-70
2023/01/08 00:41:22;;;;;;;38.33;21.40;;;4.90;99.90;;;4.67;84.73;100454.97;5108186;28;20207;-69
2023/01/08 00:43:50;;;;;;;30.30;19.60;;;4.90;99.90;;;4.62;84.74;100454.03;5109346;28;20249;-70
2023/01/08 00:46:19;;;;;;;34.57;20.50;;;4.90;99.90;;;4.60;84.78;100457.41;5109868;28;20212;-69
2023/01/08 00:48:47;;;;;;;32.10;18.90;;;4.80;99.90;;;4.57;84.74;100443.75;5109113;28;20204;-69
2023/01/08 00:51:16;;;;;;;35.27;19.43;;;4.80;99.90;;;4.52;84.65;100453.84;5109478;28;20309;-70
2023/01/08 00:53:45;;;;;;;33.43;20.10;;;4.80;99.90;;;4.50;84.15;100445.31;5109687;28;20620;-70
2023/01/08 00:56:13;;;;;;;33.57;19.43;;;4.70;99.90;;;4.48;84.36;100461.41;5109413;28;21045;-70
2023/01/08 00:58:43;;;;;;;33.10;20.23;;;4.70;99.90;;;4.46;84.59;100432.47;5109481;28;20318;-70
2023/01/08 01:01:13;;;;;;;34.87;20.10;;;4.70;99.90;;;4.39;84.71;100428.94;5109635;28;20308;-70
2023/01/08 01:03:43;;;;;;;36.03;20.97;;;4.60;99.90;;;4.33;84.22;100434.75;5109509;28;20208;-69
2023/01/08 01:06:14;;;;;;;33.20;19.70;;;4.60;99.90;;;4.27;84.18;100428.66;5107786;28;20220;-68
2023/01/08 01:08:43;;;;;;;30.90;20.23;;;4.60;99.90;;;4.23;84.07;100430.28;5108173;28;20204;-73
2023/01/08 01:11:19;;;;;;;30.00;18.03;;;4.50;99.90;;;4.18;84.65;100437.00;5109262;28;20204;-71
2023/01/08 01:13:50;;;;;;;29.60;18.27;;;4.50;99.90;;;4.17;84.13;100435.28;5109844;28;20268;-71
2023/01/08 01:16:19;;;;;;;34.00;19.63;;;4.40;99.90;;;4.15;84.82;100430.97;5104243;28;20671;-70
2023/01/08 01:18:48;;;;;;;31.50;19.70;;;4.40;99.90;;;4.11;84.47;100432.59;5110159;28;20234;-68
2023/01/08 01:21:23;;;;;;;30.53;19.97;;;4.40;99.90;;;4.07;84.71;100433.38;5106591;28;20224;-70
2023/01/08 01:23:54;;;;;;;33.10;19.67;;;4.30;99.90;;;4.01;84.72;100413.69;5109631;28;20196;-70
2023/01/08 01:26:24;;;;;;;29.73;18.73;;;4.30;99.90;;;3.99;84.66;100417.91;5109593;28;20344;-71
2023/01/08 01:28:57;;;;;;;27.33;18.23;;;4.30;99.90;;;3.92;84.54;100410.97;5109296;28;20235;-69
2023/01/08 01:31:29;;;;;;;29.87;18.37;;;4.20;99.90;;;3.93;84.30;100432.22;5107763;28;20640;-71
2023/01/08 01:33:58;;;;;;;27.40;18.67;;;4.30;99.90;;;3.88;84.98;100417.69;5102462;28;20215;-69
2023/01/08 01:36:29;;;;;;;30.20;18.27;;;4.20;99.90;;;3.85;83.99;100435.47;5091816;28;20274;-72
2023/01/08 01:38:58;;;;;;;27.50;17.43;;;4.20;99.90;;;3.85;84.86;100422.72;5108127;28;20269;-72
2023/01/08 01:41:31;;;;;;;31.00;19.07;;;4.10;99.90;;;3.79;84.50;100411.53;5108311;28;20200;-70
2023/01/08 01:44:40;;;;;;;28.00;17.77;;;4.10;99.90;;;3.78;84.49;100414.91;5108467;28;20188;-70
2023/01/08 01:47:22;;;;;;;30.83;18.10;;;4.10;99.90;;;3.79;85.14;100417.50;5101779;28;20601;-70
2023/01/08 01:49:59;;;;;;;27.10;17.83;;;4.10;99.90;;;3.78;84.45;100410.66;5110205;28;20249;-69
2023/01/08 01:52:30;;;;;;;27.83;18.37;;;4.10;99.90;;;3.77;85.37;100408.94;5106493;28;20221;-69
2023/01/08 01:55:01;;;;;;;32.77;20.03;;;4.10;99.90;;;3.80;84.98;100410.72;5107508;28;20235;-70
2023/01/08 01:57:30;;;;;;;29.20;17.87;;;4.10;99.90;;;3.81;85.19;100394.59;5107868;28;20199;-67
2023/01/08 02:00:07;;;;;;;28.63;18.60;;;4.10;99.90;;;3.75;84.42;100389.34;5108439;28;20240;-70
2023/01/08 02:02:35;;;;;;;27.97;18.43;;;4.10;99.90;;;3.79;84.99;100396.22;5098385;28;20199;-70
2023/01/08 02:05:05;;;;;;;29.43;18.43;;;4.10;99.90;;;3.77;85.10;100403.00;5109280;28;20216;-68
2023/01/08 02:07:42;;;;;;;23.53;16.83;;;4.10;99.90;;;3.75;85.47;100385.09;5109290;28;20252;-70
2023/01/08 02:10:17;;;;;;;28.10;17.57;;;4.10;99.90;;;3.78;85.53;100380.09;5104675;28;20552;-72
2023/01/08 02:12:52;;;;;;;30.97;18.87;;;4.10;99.90;;;3.79;85.51;100397.13;5106901;28;20192;-70
2023/01/08 02:15:33;;;;;;;29.47;18.47;;;4.10;99.90;;;3.80;85.76;100388.63;5108391;28;20188;-70
2023/01/08 02:18:08;;;;;;;28.73;17.07;;;4.10;99.90;;;3.80;85.37;100386.09;5109610;28;20588;-71
2023/01/08 02:20:41;;;;;;;30.73;18.90;;;4.10;99.90;;;3.82;85.66;100375.91;5109033;28;20599;-71
2023/01/08 02:23:27;;;;;;;27.27;17.67;;;4.20;99.90;;;3.88;85.09;100382.00;5096187;28;20196;-71
2023/01/08 02:26:08;;;;;;;27.70;17.10;;;4.20;99.90;;;3.90;86.11;100373.53;5109297;28;20676;-71
2023/01/08 02:28:42;;;;;;;29.93;18.40;;;4.20;99.90;;;3.94;85.73;100376.19;5110974;28;20235;-71
2023/01/08 02:31:12;;;;;;;26.13;17.73;;;4.20;99.90;;;3.97;85.32;100370.25;5111555;28;20631;-71
2023/01/08 02:33:41;;;;;;;27.20;18.00;;;4.30;99.90;;;4.00;85.51;100365.22;5113142;28;20646;-71
2023/01/08 02:36:30;;;;;;;28.20;18.10;;;4.30;99.90;;;4.00;85.48;100371.19;5112876;28;20516;-71
2023/01/08 02:39:30;;;;;;;30.43;18.37;;;4.30;99.90;;;4.06;85.56;100356.03;5108255;28;20280;-70
2023/01/08 02:42:14;;;;;;;22.13;15.53;;;4.60;99.90;;;4.11;85.03;100362.06;5106171;28;20239;-71
2023/01/08 02:44:55;;;;;;;24.63;15.90;;;4.40;99.90;;;4.14;85.02;100356.16;5110765;28;20657;-71
2023/01/08 02:47:31;;;;;;;24.50;16.20;;;4.40;99.90;;;4.16;84.74;100356.19;5112359;28;20633;-71
2023/01/08 02:50:10;;;;;;;22.40;14.97;;;4.40;99.90;;;4.16;84.10;100356.19;5112059;28;20192;-72
2023/01/08 02:52:49;;;;;;;21.43;14.63;;;4.40;99.90;;;4.13;83.90;100353.59;5112708;28;20203;-70
2023/01/08 02:55:22;;;;;;;21.13;13.47;;;4.40;99.90;;;4.12;84.34;100365.47;5111075;28;20241;-71
2023/01/08 02:57:52;;;;;;;21.27;14.40;;;4.40;99.90;;;4.10;84.20;100357.81;5113386;28;20233;-70
2023/01/08 03:00:22;;;;;;;22.73;14.90;;;4.40;99.90;;;4.09;83.59;100351.00;5113006;28;20220;-71
2023/01/08 03:03:00;;;;;;;21.83;13.93;;;4.40;99.90;;;4.09;83.41;100356.09;5112712;28;20207;-70
2023/01/08 03:05:29;;;;;;;19.40;12.47;;;4.30;99.90;;;4.07;83.62;100356.88;5108345;28;20212;-72
2023/01/08 03:07:58;;;;;;;20.60;12.93;;;4.30;99.90;;;4.03;83.55;100353.41;5112709;28;20553;-70
2023/01/08 03:10:30;;;;;;;20.20;12.27;;;4.30;99.90;;;3.99;83.03;100331.22;5110305;28;20196;-71
2023/01/08 03:13:05;;;;;;;18.77;12.13;;;4.30;99.90;;;3.95;82.75;100341.34;5112745;28;20234;-72
2023/01/08 03:15:41;;;;;;;15.50;11.50;;;4.20;99.90;;;3.88;83.31;100348.88;5111816;28;20199;-69
2023/01/08 03:18:15;;;;;;;18.30;11.23;;;4.20;99.90;;;3.84;82.92;100342.00;5102596;28;20216;-70
2023/01/08 03:20:45;;;;;;;16.50;11.00;;;4.10;99.90;;;3.78;83.37;100329.09;5110219;28;20230;-69
2023/01/08 03:23:16;;;;;;;19.07;11.63;;;4.10;99.90;;;3.72;83.02;100334.09;5112640;28;20603;-70
2023/01/08 03:25:47;;;;;;;18.23;12.47;;;4.00;99.90;;;3.65;83.06;100328.84;5111958;28;20204;-71
2023/01/08 03:28:23;;;;;;;17.07;10.73;;;3.90;99.90;;;3.62;82.95;100338.13;5099175;28;20208;-71
2023/01/08 03:30:54;;;;;;;16.97;11.10;;;3.90;99.90;;;3.57;82.64;100332.09;5111899;28;20223;-72
2023/01/08 03:33:25;;;;;;;15.53;11.23;;;3.90;99.90;;;3.53;83.40;100332.81;5101547;28;20679;-69
2023/01/08 03:35:56;;;;;;;15.23;10.63;;;3.80;99.90;;;3.47;82.87;100322.53;5109755;28;20242;-71
2023/01/08 03:38:29;;;;;;;14.57;9.97;;;3.80;99.90;;;3.47;83.20;100330.16;5109844;28;20298;-69
2023/01/08 03:41:04;;;;;;;18.17;11.27;;;3.70;99.90;;;3.46;83.03;100330.13;5110578;28;20614;-70
2023/01/08 03:43:34;;;;;;;15.20;10.27;;;3.70;99.90;;;3.43;83.02;100325.84;5111537;28;20234;-71
2023/01/08 03:46:09;;;;;;;15.10;10.57;;;3.70;99.90;;;3.45;82.84;100328.41;5111246;28;20200;-71
2023/01/08 03:48:38;;;;;;;16.67;10.37;;;3.70;99.90;;;3.41;83.03;100316.44;5103934;28;20654;-72
2023/01/08 03:51:09;;;;;;;18.77;11.37;;;3.70;99.90;;;3.40;82.94;100323.22;5103539;28;20211;-70
2023/01/08 03:53:38;;;;;;;15.57;10.77;;;3.70;99.90;;;3.37;83.12;100329.09;5110925;28;20208;-70
2023/01/08 03:56:07;;;;;;;16.33;10.27;;;3.60;99.90;;;3.35;82.83;100346.03;5111490;28;20333;-70
2023/01/08 03:58:37;;;;;;;15.60;10.27;;;3.60;99.90;;;3.31;82.99;100320.44;5111307;28;20308;-71
2023/01/08 04:01:05;;;;;;;15.47;10.23;;;3.60;99.90;;;3.32;82.95;100322.19;5111015;28;20228;-69
2023/01/08 04:03:34;;;;;;;14.60;10.07;;;3.60;99.90;;;3.32;83.05;100328.16;5111005;28;20264;-71
2023/01/08 04:06:02;;;;;;;14.80;9.80;;;3.60;99.90;;;3.30;83.49;100318.75;5108432;28;20203;-70
2023/01/08 04:08:31;;;;;;;17.63;10.33;;;3.60;99.90;;;3.29;83.54;100322.13;5111095;28;20203;-70
2023/01/08 04:10:59;;;;;;;15.07;9.83;;;3.60;99.90;;;3.29;82.85;100343.34;5110236;28;20230;-70
2023/01/08 04:13:27;;;;;;;15.47;9.73;;;3.60;99.90;;;3.27;82.85;100324.63;5109765;28;20256;-70
2023/01/08 04:15:57;;;;;;;15.83;11.33;;;3.50;99.90;;;3.25;84.14;100320.34;5110545;28;20645;-67
2023/01/08 04:18:26;;;;;;;17.23;10.93;;;3.60;99.90;;;3.26;83.85;100333.09;5109686;28;20229;-70
2023/01/08 04:20:54;;;;;;;15.80;9.63;;;3.60;99.90;;;3.29;84.28;100328.06;5110853;28;20738;-69
2023/01/08 04:23:23;;;;;;;13.17;9.97;;;3.60;99.90;;;3.31;83.39;100323.00;5110241;28;20187;-70
2023/01/08 04:25:51;;;;;;;14.87;9.87;;;3.60;99.90;;;3.31;83.38;100330.63;5107404;28;20700;-69
2023/01/08 04:28:21;;;;;;;13.40;9.40;;;3.50;99.90;;;3.31;83.92;100316.22;5096745;28;20261;-70
2023/01/08 04:30:49;;;;;;;12.97;8.63;;;3.60;99.90;;;3.32;83.74;100320.50;5104034;28;20251;-70
2023/01/08 04:33:19;;;;;;;13.50;8.80;;;3.60;99.90;;;3.30;83.67;100311.09;5109723;28;20218;-70
2023/01/08 04:35:48;;;;;;;13.00;9.57;;;3.60;99.90;;;3.29;83.42;100300.06;5109801;28;20204;-70
2023/01/08 04:38:16;;;;;;;12.93;8.50;;;3.50;99.90;;;3.27;83.01;100306.78;5109360;28;20641;-72
2023/01/08 04:40:44;;;;;;;15.50;9.10;;;3.50;99.90;;;3.26;83.68;100314.41;5110015;28;20251;-70
2023/01/08 04:43:13;;;;;;;14.53;8.87;;;3.50;99.90;;;3.21;83.70;100321.94;5110423;28;20200;-70
2023/01/08 04:45:41;;;;;;;13.20;8.90;;;3.50;99.90;;;3.18;83.10;100321.03;5109406;28;20634;-70
2023/01/08 04:48:09;;;;;;;14.47;9.87;;;3.50;99.90;;;3.14;83.83;100312.47;5101035;28;20231;-70
2023/01/08 04:50:39;;;;;;;13.10;9.23;;;3.40;99.90;;;3.14;83.98;100309.91;5110031;28;20243;-71
2023/01/08 04:53:07;;;;;;;12.83;8.70;;;3.40;99.90;;;3.14;83.63;100317.53;5109893;28;20204;-70
2023/01/08 04:55:36;;;;;;;14.20;9.30;;;3.40;99.90;;;3.15;84.21;100309.94;5109687;28;20236;-71
2023/01/08 04:58:06;;;;;;;12.27;9.47;;;3.50;99.90;;;3.18;84.32;100314.25;5110768;28;20679;-70
2023/01/08 05:00:36;;;;;;;14.77;10.00;;;3.40;99.90;;;3.17;83.79;100322.72;5108370;28;20281;-69
2023/01/08 05:03:04;;;;;;;16.33;9.37;;;3.40;99.90;;;3.17;83.88;100311.63;5109384;28;20652;-71
2023/01/08 05:05:34;;;;;;;12.70;9.27;;;3.40;99.90;;;3.14;83.81;100304.81;5108139;28;20208;-68
2023/01/08 05:08:04;;;;;;;13.47;9.77;;;3.50;99.90;;;3.17;83.88;100301.47;5110982;28;20261;-72
2023/01/08 05:10:33;;;;;;;15.70;9.57;;;3.50;99.90;;;3.20;84.42;100296.44;5109350;28;20530;-70
2023/01/08 05:13:03;;;;;;;13.83;10.07;;;3.50;99.90;;;3.19;84.01;100299.81;5107692;28;20200;-71
2023/01/08 05:15:31;;;;;;;15.40;9.30;;;3.50;99.90;;;3.21;83.58;100303.28;5108108;28;20204;-70
2023/01/08 05:18:01;;;;;;;16.47;10.00;;;3.50;99.90;;;3.22;83.92;100300.75;5092150;28;20203;-70
2023/01/08 05:20:30;;;;;;;16.23;9.90;;;3.60;99.90;;;3.22;84.19;100307.53;5102279;28;20227;-68
2023/01/08 05:22:58;;;;;;;14.60;9.90;;;3.50;99.90;;;3.19;83.78;100287.94;5108702;28;20225;-71
2023/01/08 05:25:28;;;;;;;13.80;8.50;;;3.50;99.90;;;3.15;83.73;100293.78;5109721;28;20268;-70
2023/01/08 05:27:56;;;;;;;15.57;9.03;;;3.40;99.90;;;3.11;84.08;100292.88;5108340;28;20264;-69
2023/01/08 05:30:25;;;;;;;13.10;8.60;;;3.40;99.90;;;3.10;83.23;100285.22;5109001;28;20649;-71
2023/01/08 05:32:53;;;;;;;12.63;8.67;;;3.40;99.90;;;3.11;83.34;100287.78;5109930;28;20281;-70
2023/01/08 05:35:21;;;;;;;16.90;9.00;;;3.40;99.90;;;3.12;83.99;100288.63;5107898;28;20204;-72
2023/01/08 05:37:50;;;;;;;14.70;8.93;;;3.40;99.90;;;3.12;83.35;100293.72;5109616;28;20203;-70
2023/01/08 05:40:19;;;;;;;11.43;7.83;;;3.40;99.90;;;3.12;84.05;100294.59;5109916;28;20208;-72
2023/01/08 05:42:49;;;;;;;12.10;8.10;;;3.40;99.90;;;3.13;83.05;100298.88;5109793;28;20273;-70
2023/01/08 05:45:18;;;;;;;14.30;8.63;;;3.40;99.90;;;3.09;83.18;100288.56;5107722;28;20281;-71
2023/01/08 05:47:46;;;;;;;12.20;8.70;;;3.40;99.90;;;3.09;82.61;100289.44;5108978;28;20716;-70
2023/01/08 05:50:15;;;;;;;12.40;8.30;;;3.40;99.90;;;3.07;83.23;100283.44;5107271;28;20204;-70
2023/01/08 05:52:43;;;;;;;11.83;7.93;;;3.40;99.90;;;3.07;82.58;100278.34;5109981;28;20227;-70
2023/01/08 05:55:12;;;;;;;11.43;8.00;;;3.40;99.90;;;3.08;83.05;100276.66;5108077;28;20640;-71
2023/01/08 05:57:40;;;;;;;11.50;7.83;;;3.40;99.90;;;3.09;83.02;100280.91;5110031;28;20292;-71
2023/01/08 06:00:12;;;;;;;11.57;7.47;;;3.40;99.90;;;3.09;82.97;100286.00;5099380;28;20745;-69
2023/01/08 06:02:40;;;;;;;10.03;6.83;;;3.40;99.90;;;3.11;83.25;100285.22;5107993;28;20281;-70
2023/01/08 06:05:09;;;;;;;12.03;7.70;;;3.40;99.90;;;3.10;82.50;100286.06;5113224;28;20243;-71
2023/01/08 06:07:37;;;;;;;11.13;7.13;;;3.40;99.90;;;3.09;82.04;100284.34;5111712;28;20238;-71
2023/01/08 06:10:07;;;;;;;11.63;7.63;;;3.40;99.90;;;3.08;82.91;100291.94;5113648;28;20204;-70
2023/01/08 06:12:35;;;;;;;12.30;7.90;;;3.30;99.90;;;3.03;82.57;100278.25;5111928;28;20200;-69
2023/01/08 06:15:05;;;;;;;11.47;8.13;;;3.30;99.90;;;3.02;82.30;100271.44;5111685;28;20207;-71
2023/01/08 06:17:36;;;;;;;13.53;8.30;;;3.30;99.90;;;3.02;82.57;100282.50;5111819;28;20207;-70
2023/01/08 06:20:06;;;;;;;10.83;7.37;;;3.30;99.90;;;3.01;83.05;100285.84;5111177;28;20244;-71
2023/01/08 06:22:35;;;;;;;12.13;7.63;;;3.30;99.90;;;3.02;82.69;100296.88;5111400;28;20223;-72
2023/01/08 06:25:04;;;;;;;11.53;7.73;;;3.30;99.90;;;2.98;82.53;100288.31;5111620;28;20196;-67
2023/01/08 06:27:33;;;;;;;12.03;7.57;;;3.30;99.90;;;2.97;82.63;100280.66;5112373;28;20253;-65
2023/01/08 06:30:01;;;;;;;11.00;8.17;;;3.30;99.90;;;2.93;83.31;100276.31;5112209;28;20737;-65
2023/01/08 06:32:29;;;;;;;12.53;8.30;;;3.30;99.90;;;2.92;83.06;100279.69;5112562;28;20652;-66
2023/01/08 06:34:59;;;;;;;11.40;7.67;;;3.20;99.90;;;2.90;82.77;100272.88;5112101;28;20208;-69
2023/01/08 06:37:27;;;;;;;15.13;9.03;;;3.20;99.90;;;2.88;83.27;100266.91;5112833;28;20220;-66
2023/01/08 06:39:56;;;;;;;13.40;7.93;;;3.20;99.90;;;2.89;82.41;100276.25;5111892;28;20200;-65
2023/01/08 06:42:24;;;;;;;12.27;7.97;;;3.20;99.90;;;2.87;83.31;100267.72;5110956;28;20688;-67
2023/01/08 06:44:52;;;;;;;13.07;8.60;;;3.20;99.90;;;2.86;82.40;100265.13;5108714;28;20257;-67
2023/01/08 06:47:21;;;;;;;13.37;8.20;;;3.20;99.90;;;2.84;82.85;100257.47;5112159;28;20261;-63
2023/01/08 06:49:50;;;;;;;13.77;7.90;;;3.20;99.90;;;2.87;82.59;100256.66;5098306;28;20763;-65
2023/01/08 06:52:20;;;;;;;11.10;7.67;;;3.20;99.90;;;2.86;82.97;100268.53;5106494;28;20240;-66
2023/01/08 06:54:48;;;;;;;13.07;7.57;;;3.20;99.90;;;2.84;82.63;100252.38;5107343;28;20317;-66
2023/01/08 06:57:17;;;;;;;11.57;7.53;;;3.20;99.90;;;2.83;83.16;100240.47;5113579;28;20257;-66
2023/01/08 06:59:45;;;;;;;11.10;7.53;;;3.20;99.90;;;2.81;83.03;100247.22;5110213;28;20235;-67
2023/01/08 07:02:14;;;;;;;11.83;7.23;;;3.20;99.90;;;2.82;82.85;100238.75;5100110;28;20228;-66
2023/01/08 07:04:43;;;;;;;10.43;6.77;;;3.20;99.90;;;2.83;82.12;100254.88;5110726;28;20207;-65
2023/01/08 07:07:13;;;;;;;11.63;7.80;;;3.20;99.90;;;2.82;81.91;100248.94;5094531;28;20706;-65
2023/01/08 07:09:43;;;;;;;12.57;7.43;;;3.20;99.90;;;2.84;82.97;100257.47;5111151;28;20208;-67
2023/01/08 07:12:13;;;;;;;11.17;7.30;;;3.20;99.90;;;2.85;82.32;100254.09;5102133;28;20682;-66
2023/01/08 07:14:42;;;;;;;10.67;7.40;;;3.20;99.90;;;2.87;82.61;100241.41;5111492;28;20249;-67
2023/01/08 07:17:10;;;;;;;13.50;7.97;;;3.20;99.90;;;2.93;82.82;100255.97;5110103;27;20643;-66
2023/01/08 07:19:39;;;;;;;12.27;7.83;;;3.30;99.90;;;2.95;82.44;100259.41;5110877;28;20241;-66
2023/01/08 07:22:07;;;;;;;12.17;7.73;;;3.20;99.90;;;2.93;82.50;100236.47;5112344;28;20361;-66
2023/01/08 07:24:35;;;;;;;10.73;7.57;;;3.20;99.90;;;2.95;82.20;100250.09;5107214;28;20617;-66
2023/01/08 07:27:05;;;;;;;12.20;7.17;;;3.30;99.90;;;2.95;82.14;100231.41;5104613;28;20215;-65
2023/01/08 07:29:34;;;;;;;11.23;7.77;;;3.30;99.90;;;2.93;82.02;100233.06;5112857;28;20261;-70
2023/01/08 07:32:02;;;;;;;13.00;7.87;;;3.30;99.90;;;2.93;80.93;100243.25;5123211;27;20261;-70
2023/01/08 07:34:31;;;;;;;10.47;7.30;;;3.20;99.90;;;2.91;81.62;100235.59;5110830;28;20208;-68
2023/01/08 07:37:00;;;;;;;15.57;8.43;;;3.20;99.90;;;2.92;81.30;100228.81;5112178;28;20264;-66
2023/01/08 07:39:28;;;;;;;13.67;7.93;;;3.20;99.90;;;2.88;81.41;100215.16;5110363;28;20208;-66
2023/01/08 07:41:57;;;;;;;14.07;8.03;;;3.20;99.90;;;2.90;81.05;100216.03;5119658;27;20204;-71
2023/01/08 07:44:26;;;;;;;13.13;8.30;;;3.20;99.90;;;2.89;80.74;100210.09;5114175;28;20325;-67
2023/01/08 07:46:55;;;;;;;13.47;8.23;;;3.20;99.90;;;2.88;80.78;100228.72;5111316;27;20225;-68
2023/01/08 07:49:25;;;;;;;12.93;8.53;;;3.20;99.90;;;2.85;81.26;100204.91;5119138;28;20636;-69
2023/01/08 07:51:53;;;;;;;16.23;8.80;;;3.20;99.90;;;2.85;81.47;100210.00;5119645;28;20196;-68
2023/01/08 07:54:22;;;;;;;14.27;8.10;;;3.20;99.90;;;2.87;81.12;100214.28;5117807;28;20606;-69
2023/01/08 07:56:50;;;;;;;14.57;8.70;;;3.20;99.90;;;2.89;80.71;100224.50;5116470;28;20188;-67
2023/01/08 07:59:19;;;;;;;11.33;7.90;;;3.20;99.90;;;2.87;81.51;100211.75;5111391;28;20306;-67
2023/01/08 08:01:49;;;;;;;13.37;8.10;;;3.20;99.90;;;2.89;81.80;100215.16;5108036;27;20706;-67
2023/01/08 08:04:18;;;;;;;15.17;8.20;;;3.20;99.90;;;2.90;80.78;100211.78;5106908;28;20232;-69
2023/01/08 08:06:46;;;;;;;13.37;8.17;;;3.20;99.90;;;2.87;80.86;100206.66;5109106;28;20219;-68
2023/01/08 08:09:15;;;;;;;13.03;8.10;;;3.20;99.90;;;2.92;80.76;100213.53;5109640;28;20204;-74
2023/01/08 08:11:43;;;;;;;14.30;8.33;;;3.20;99.90;;;2.92;80.99;100218.63;5118714;28;20211;-71
2023/01/08 08:14:12;;;;;;;12.70;7.73;;;3.20;99.90;;;2.90;81.67;100221.97;5116647;28;20204;-70
2023/01/08 08:16:41;;;;;;;16.23;8.90;;;3.20;99.90;;;2.93;81.70;100215.25;5112538;28;20200;-69
2023/01/08 08:19:11;;;;;;;12.63;7.93;;;3.30;99.90;;;2.94;81.61;100217.81;5102031;28;20204;-70
2023/01/08 08:21:40;;;;;;;12.17;8.07;;;3.30;99.90;;;2.95;81.63;100216.16;5116274;28;20240;-76
2023/01/08 08:24:09;;;;;;;14.37;8.57;;;3.30;99.90;;;3.00;81.41;100220.50;5113019;28;20277;-73
2023/01/08 08:26:37;;;;;;;11.73;7.23;;;3.30;99.90;;;3.00;80.33;100217.94;5112832;28;20204;-73
2023/01/08 08:29:06;;;;;;;12.23;7.90;;;3.30;99.90;;;3.00;80.29;100199.28;5113962;28;20635;-72
2023/01/08 08:31:34;;;;;;;15.03;8.37;;;3.30;99.90;;;2.99;80.90;100200.97;5111590;27;20255;-69
2023/01/08 08:34:03;;;;;;;11.07;7.87;;;3.30;99.90;;;3.03;80.04;100194.25;5110635;28;20208;-70
2023/01/08 08:36:33;;;;;;;10.73;7.87;;;3.30;99.90;;;3.01;80.90;100193.34;5109246;28;20219;-71
2023/01/08 08:39:03;;;;;;;14.40;8.47;;;3.30;99.90;;;3.01;80.58;100188.25;5111021;28;20553;-71
2023/01/08 08:41:32;;;;;;;15.03;8.27;;;3.30;99.90;;;3.03;80.27;100184.09;5111927;28;20200;-69
2023/01/08 08:44:00;;;;;;;13.13;8.93;;;3.30;99.90;;;3.04;81.11;100183.25;5111591;28;20731;-70
2023/01/08 08:46:29;;;;;;;15.57;8.73;;;3.40;99.90;;;3.06;80.19;100196.88;5116210;28;20200;-68
2023/01/08 08:48:58;;;;;;;12.93;8.40;;;3.40;99.90;;;3.07;80.67;100176.53;5121666;28;20290;-71
2023/01/08 08:51:27;;;;;;;13.60;8.77;;;3.40;99.90;;;3.12;80.12;100181.72;5113393;28;20731;-69
2023/01/08 08:53:57;;;;;;;13.93;9.00;;;3.40;99.90;;;3.14;80.00;100183.47;5110585;28;20617;-69
2023/01/08 08:56:28;;;;;;;14.90;8.67;;;3.40;99.90;;;3.18;79.69;100175.91;5110203;28;20216;-70
2023/01/08 08:58:57;;;;;;;14.90;8.73;;;3.50;99.90;;;3.20;79.78;100164.91;5113312;28;20204;-69
2023/01/08 09:01:26;;;;;;;14.97;9.07;;;3.50;99.90;;;3.25;79.56;100173.50;5111492;28;20219;-69
2023/01/08 09:03:54;;;;;;;16.23;8.23;;;3.60;99.90;;;3.26;79.69;100174.34;5105936;28;20288;-70
2023/01/08 09:06:26;;;;;;;13.90;8.70;;;3.60;99.90;;;3.26;79.57;100159.94;5114282;28;20234;-69
2023/01/08 09:08:54;;;;;;;11.63;7.80;;;3.60;99.90;;;3.26;79.78;100185.41;5103953;27;20200;-69
2023/01/08 09:11:24;;;;;;;17.13;8.87;;;3.60;99.90;;;3.29;79.95;100189.72;5112227;28;20257;-70
2023/01/08 09:13:53;;;;;;;15.90;8.80;;;3.60;99.90;;;3.30;78.78;100184.63;5110430;28;20624;-70
2023/01/08 09:16:21;;;;;;;14.47;9.43;;;3.60;99.90;;;3.31;78.71;100188.88;5114815;28;20223;-70
2023/01/08 09:18:49;;;;;;;15.30;9.67;;;3.60;99.90;;;3.35;78.63;100183.06;5114795;28;20204;-71
2023/01/08 09:21:18;;;;;;;13.53;8.67;;;3.70;99.90;;;3.37;79.15;100189.03;5100127;28;20310;-70
2023/01/08 09:23:48;;;;;;;13.63;8.67;;;3.70;99.90;;;3.42;78.63;100170.41;5103124;28;20224;-70
2023/01/08 09:26:17;;;;;;;15.37;9.50;;;3.70;99.90;;;3.44;79.24;100168.78;5096663;28;20429;-69
2023/01/08 09:28:47;;;;;;;17.70;9.37;;;3.70;99.90;;;3.46;79.14;100173.06;5083509;28;20188;-68
2023/01/08 09:31:15;;;;;;;12.20;8.53;;;3.80;99.90;;;3.51;78.05;100165.50;5085381;28;20209;-68
2023/01/08 09:33:43;;;;;;;14.73;8.97;;;3.80;99.90;;;3.48;78.87;100166.31;5080854;28;20292;-69
2023/01/08 09:36:13;;;;;;;14.20;8.83;;;3.80;99.90;;;3.50;78.84;100151.03;5090611;28;20235;-72
2023/01/08 09:38:43;;;;;;;13.50;8.80;;;3.80;99.90;;;3.53;79.01;100149.41;5105699;28;20645;-69
2023/01/08 09:41:18;;;;;;;15.77;9.03;;;3.80;99.90;;;3.57;78.58;100151.22;5094743;28;20204;-68
2023/01/08 09:43:52;;;;;;;13.50;8.83;;;3.90;99.90;;;3.65;78.92;100151.34;5103334;28;20548;-68
2023/01/08 09:46:27;;;;;;;14.27;8.67;;;3.90;99.90;;;3.69;77.72;100135.28;5085759;28;20215;-70
2023/01/08 09:49:00;;;;;;;12.07;8.20;;;4.00;99.90;;;3.72;78.87;100140.44;5087093;28;20200;-69
2023/01/08 09:51:35;;;;;;;14.47;9.43;;;4.00;99.90;;;3.75;77.57;100125.16;5095974;28;20222;-70
2023/01/08 09:54:06;;;;;;;15.50;9.10;;;4.00;99.90;;;3.81;77.86;100122.72;5090486;28;20424;-68
2023/01/08 09:56:35;;;;;;;14.07;8.70;;;4.10;99.90;;;3.86;77.45;100121.09;5093430;28;20215;-69
2023/01/08 09:59:06;;;;;;;12.87;8.77;;;4.20;99.90;;;3.95;77.96;100127.22;5101638;28;20208;-69
2023/01/08 10:01:38;;;;;;;13.37;9.07;;;4.20;99.90;;;4.01;77.64;100127.31;5094429;28;20232;-71
2023/01/08 10:04:14;;;;;;;12.27;8.50;;;4.30;99.90;;;4.03;77.14;100126.50;5109259;28;20220;-71
2023/01/08 10:06:50;;;;;;;10.70;7.73;;;4.30;99.90;;;4.06;77.33;100134.19;5106789;28;20277;-70
2023/01/08 10:09:26;;;;;;;13.38;9.70;;;4.30;99.90;;;4.05;76.87;100113.75;5093168;28;20437;-68
2023/01/08 10:11:59;;;;;;;14.93;10.85;;;4.40;99.90;;;4.10;77.19;100109.63;5107184;28;20440;-70
2023/01/08 10:14:32;;;;;;;14.23;8.47;;;4.40;99.90;;;4.13;77.01;100113.91;5102477;28;20212;-70
2023/01/08 10:17:07;;;;;;;16.83;10.07;;;4.40;99.90;;;4.15;76.80;100107.13;5108125;28;20440;-69
2023/01/08 10:19:39;;;;;;;14.43;10.57;;;4.40;99.90;;;4.16;76.60;100108.84;5102732;28;20456;-68
2023/01/08 10:22:13;;;;;;;11.63;8.43;;;4.40;99.90;;;4.18;76.33;100104.63;5129020;28;20710;-69
2023/01/08 10:24:42;;;;;;;12.07;8.30;;;4.50;99.90;;;4.17;76.27;100098.69;5127632;28;20223;-68
2023/01/08 10:27:15;;;;;;;14.00;9.27;;;4.40;99.90;;;4.16;75.59;100094.41;5130732;28;20579;-69
2023/01/08 10:29:45;;;;;;;13.33;8.93;;;4.50;99.90;;;4.17;75.50;100093.56;5123212;28;20245;-69